Time;durP1;ratioP1;P1;durP2;ratioP2;P2;SDS_P1;SDS_P2;PMS_P1;PMS_P2;Temp;Humidity;BMP_temperature;BMP_pressure;BME280_temperature;BME280_humidity;BME280_pressure;Samples;Min_cycle;Max_cycle;Signal;HPM_P1;HPM_P2
2023/06/02 00:00:48;;;;;;;20.90;4.90;;;;;;;16.47;58.11;100754.20;107420;1254;107876;-60
2023/06/02 00:03:37;;;;;;;12.60;5.20;;;;;;;16.41;58.11;100761.11;107419;1255;97818;-59
2023/06/02 00:06:11;;;;;;;13.10;5.00;;;;;;;16.36;58.25;100761.77;107461;1254;98370;-60
2023/06/02 00:08:40;;;;;;;11.30;5.20;;;;;;;16.33;58.53;100762.95;107456;1254;112210;-59
2023/06/02 00:11:10;;;;;;;13.10;4.70;;;;;;;16.26;58.59;100765.81;107426;1254;110182;-59
2023/06/02 00:13:40;;;;;;;13.30;4.30;;;;;;;16.26;58.76;100764.73;107396;1254;107105;-60
2023/06/02 00:16:08;;;;;;;10.70;5.50;;;;;;;16.26;58.71;100766.60;107449;1254;97701;-61
2023/06/02 00:18:37;;;;;;;10.20;4.40;;;;;;;16.22;58.84;100764.98;107510;1254;98361;-62
2023/06/02 00:21:09;;;;;;;10.40;5.40;;;;;;;16.15;58.77;100765.06;107439;1254;111686;-60
2023/06/02 00:23:37;;;;;;;15.90;4.90;;;;;;;16.09;58.81;100765.14;107275;1259;109222;-60
2023/06/02 00:26:05;;;;;;;15.50;5.10;;;;;;;16.05;59.27;100768.91;107391;1259;108352;-60
2023/06/02 00:28:33;;;;;;;13.10;4.70;;;;;;;15.94;58.96;100762.31;107400;1254;97813;-59
2023/06/02 00:31:03;;;;;;;17.60;5.10;;;;;;;15.91;59.22;100763.03;107397;1254;98460;-61
2023/06/02 00:33:32;;;;;;;9.10;4.10;;;;;;;15.93;59.47;100756.61;107450;1253;110825;-59
2023/06/02 00:36:00;;;;;;;11.30;4.60;;;;;;;15.94;59.71;100761.27;107444;1254;108605;-60
2023/06/02 00:38:29;;;;;;;18.00;5.30;;;;;;;15.94;59.74;100764.73;107318;1254;108220;-63
2023/06/02 00:40:58;;;;;;;9.10;4.70;;;;;;;15.91;59.81;100767.34;107429;1254;97813;-62
2023/06/02 00:43:27;;;;;;;17.30;5.70;;;;;;;15.88;59.79;100766.64;107429;1255;97875;-60
2023/06/02 00:45:56;;;;;;;15.60;4.70;;;;;;;15.88;60.00;100760.73;107276;1254;111532;-60
2023/06/02 00:48:25;;;;;;;14.30;5.00;;;;;;;15.85;60.00;100766.27;107451;1254;108835;-59
2023/06/02 00:50:54;;;;;;;12.90;5.00;;;;;;;15.84;59.91;100765.80;107405;1254;108758;-60
2023/06/02 00:53:25;;;;;;;13.00;5.00;;;;;;;15.80;59.78;100766.58;107463;1254;97821;-60
2023/06/02 00:55:54;;;;;;;19.10;5.00;;;;;;;15.75;59.77;100762.10;107401;1259;97822;-60
2023/06/02 00:58:23;;;;;;;9.50;4.60;;;;;;;15.72;59.51;100761.73;107451;1254;111093;-60
2023/06/02 01:00:52;;;;;;;16.40;4.90;;;;;;;15.68;59.43;100766.14;107241;1254;108634;-61
2023/06/02 01:03:24;;;;;;;14.80;5.60;;;;;;;15.64;59.55;100764.01;107504;1254;107006;-59
2023/06/02 01:05:56;;;;;;;15.80;5.40;;;;;;;15.61;59.44;100761.63;107438;1254;97796;-60
2023/06/02 01:08:25;;;;;;;10.60;4.90;;;;;;;15.56;59.50;100763.84;107468;1255;97885;-59
2023/06/02 01:10:55;;;;;;;9.00;4.70;;;;;;;15.53;59.62;100763.44;107454;1254;111518;-59
2023/06/02 01:13:24;;;;;;;10.50;4.90;;;;;;;15.50;59.51;100763.37;107453;1254;108897;-59
2023/06/02 01:15:52;;;;;;;13.80;4.50;;;;;;;15.48;59.87;100763.39;107243;1257;108935;-60
2023/06/02 01:18:25;;;;;;;8.90;4.40;;;;;;;15.46;59.97;100764.20;107437;1258;97809;-60
2023/06/02 01:20:57;;;;;;;11.30;5.80;;;;;;;15.40;60.05;100766.27;107444;1254;97730;-58
2023/06/02 01:23:36;;;;;;;9.90;5.30;;;;;;;15.34;59.97;100766.40;107431;1254;111242;-59
2023/06/02 01:26:05;;;;;;;14.30;5.50;;;;;;;15.29;60.38;100765.86;107423;1254;108852;-60
2023/06/02 01:28:33;;;;;;;11.50;5.10;;;;;;;15.18;60.27;100764.30;107441;1254;108430;-61
2023/06/02 01:31:15;;;;;;;12.80;5.40;;;;;;;15.15;60.40;100765.13;107476;1254;97828;-60
2023/06/02 01:34:02;;;;;;;15.60;5.30;;;;;;;15.15;60.64;100765.19;107429;1254;98337;-60
2023/06/02 01:36:35;;;;;;;15.00;4.80;;;;;;;15.16;60.81;100768.51;107389;1258;112157;-60
2023/06/02 01:39:06;;;;;;;10.90;5.60;;;;;;;15.17;60.83;100766.79;107401;1257;109366;-60
2023/06/02 01:41:40;;;;;;;12.90;5.60;;;;;;;15.17;61.12;100760.45;107281;1254;107449;-59
2023/06/02 01:44:09;;;;;;;12.70;4.60;;;;;;;15.16;61.48;100763.08;107430;1254;97828;-61
2023/06/02 01:46:40;;;;;;;17.80;4.90;;;;;;;15.16;61.51;100766.48;107394;1254;97684;-58
2023/06/02 01:49:16;;;;;;;10.30;4.60;;;;;;;15.12;61.41;100760.91;107311;1254;112003;-62
2023/06/02 01:51:45;;;;;;;13.60;5.10;;;;;;;15.16;61.53;100764.67;107412;1254;110136;-60
2023/06/02 01:54:15;;;;;;;15.00;4.50;;;;;;;15.18;61.57;100767.16;107424;1255;107737;-60
2023/06/02 01:56:44;;;;;;;8.10;4.10;;;;;;;15.20;61.53;100760.85;107365;1254;98040;-58
2023/06/02 01:59:12;;;;;;;13.60;4.80;;;;;;;15.20;61.49;100762.48;107270;1259;100607;-60
2023/06/02 02:01:42;;;;;;;6.10;4.30;;;;;;;15.19;61.52;100762.19;107455;1254;110280;-61
2023/06/02 02:04:11;;;;;;;13.40;5.40;;;;;;;15.17;61.58;100764.92;107469;1253;108505;-62
2023/06/02 02:06:40;;;;;;;11.10;5.10;;;;;;;15.13;62.02;100767.48;107334;1255;107503;-60
2023/06/02 02:09:08;;;;;;;19.30;5.10;;;;;;;15.10;62.14;100769.83;107460;1254;97873;-60
2023/06/02 02:11:36;;;;;;;12.70;5.30;;;;;;;15.11;62.27;100771.14;107416;1254;97810;-59
2023/06/02 02:14:05;;;;;;;16.60;4.50;;;;;;;15.12;62.19;100773.77;107466;1259;111879;-59
2023/06/02 02:16:34;;;;;;;19.60;5.50;;;;;;;15.11;62.21;100773.51;107437;1256;109728;-60
2023/06/02 02:19:02;;;;;;;11.50;4.80;;;;;;;15.08;62.84;100771.70;107486;1254;109013;-60
2023/06/02 02:21:30;;;;;;;7.50;4.40;;;;;;;15.00;63.51;100771.22;107479;1254;97836;-60
2023/06/02 02:23:59;;;;;;;8.50;4.70;;;;;;;14.93;63.19;100770.89;107471;1254;97704;-60
2023/06/02 02:26:27;;;;;;;14.10;5.20;;;;;;;14.92;63.45;100768.94;107469;1258;111316;-60
2023/06/02 02:28:57;;;;;;;12.10;4.40;;;;;;;14.91;63.50;100767.04;107421;1254;109991;-59
2023/06/02 02:31:27;;;;;;;11.80;5.20;;;;;;;14.90;63.28;100770.06;107205;1254;108140;-60
2023/06/02 02:33:56;;;;;;;14.90;5.40;;;;;;;14.89;63.16;100766.67;107270;1254;97912;-57
2023/06/02 02:36:24;;;;;;;13.10;5.60;;;;;;;14.89;63.24;100765.13;107388;1257;97950;-58
2023/06/02 02:38:53;;;;;;;12.50;5.00;;;;;;;14.84;63.15;100761.39;107469;1254;112110;-62
2023/06/02 02:41:23;;;;;;;17.50;5.40;;;;;;;14.81;62.94;100758.67;107466;1258;110151;-59
2023/06/02 02:43:52;;;;;;;13.30;4.90;;;;;;;14.80;63.02;100765.60;107276;1260;108035;-60
2023/06/02 02:46:20;;;;;;;16.20;5.20;;;;;;;14.80;63.14;100769.23;107262;1259;98038;-59
2023/06/02 02:48:49;;;;;;;14.50;5.00;;;;;;;14.81;63.18;100766.12;107409;1259;97912;-60
2023/06/02 02:51:17;;;;;;;8.90;4.60;;;;;;;14.81;63.35;100766.63;107446;1257;110648;-59
2023/06/02 02:53:46;;;;;;;13.30;4.70;;;;;;;14.79;63.21;100762.81;107502;1254;110043;-59
2023/06/02 02:56:14;;;;;;;12.70;5.20;;;;;;;14.77;63.35;100763.41;107368;1254;108346;-60
2023/06/02 02:58:44;;;;;;;16.10;6.50;;;;;;;14.75;63.37;100764.02;107461;1254;97697;-61
2023/06/02 03:01:15;;;;;;;19.60;5.10;;;;;;;14.71;63.27;100766.36;107486;1259;97914;-60
2023/06/02 03:03:44;;;;;;;9.70;3.90;;;;;;;14.70;63.40;100763.44;107203;1260;110075;-60
2023/06/02 03:06:17;;;;;;;9.80;4.60;;;;;;;14.69;63.44;100761.95;107245;1260;109138;-60
2023/06/02 03:08:47;;;;;;;14.50;5.60;;;;;;;14.71;63.84;100771.09;107336;1256;108651;-59
2023/06/02 03:11:16;;;;;;;17.30;5.80;;;;;;;14.71;63.86;100773.33;107385;1259;97945;-59
2023/06/02 03:13:44;;;;;;;10.20;5.00;;;;;;;14.68;63.92;100771.91;107235;1255;98360;-59
2023/06/02 03:16:13;;;;;;;13.90;4.80;;;;;;;14.73;64.09;100769.34;107479;1255;111698;-60
2023/06/02 03:18:42;;;;;;;14.50;5.00;;;;;;;14.77;64.16;100775.04;107447;1254;109865;-60
2023/06/02 03:21:10;;;;;;;11.30;5.00;;;;;;;14.81;64.18;100774.42;107427;1258;107722;-58
2023/06/02 03:23:40;;;;;;;9.50;4.20;;;;;;;14.85;64.11;100776.05;107430;1254;97762;-59
2023/06/02 03:26:11;;;;;;;16.80;5.20;;;;;;;14.88;64.10;100769.48;107491;1259;97729;-60
2023/06/02 03:28:42;;;;;;;18.60;5.80;;;;;;;14.92;64.16;100772.45;107380;1259;110949;-60
2023/06/02 03:31:11;;;;;;;12.50;5.50;;;;;;;14.97;64.41;100771.89;107412;1254;109827;-59
2023/06/02 03:33:40;;;;;;;13.10;5.10;;;;;;;15.02;64.28;100770.65;107435;1260;108851;-59
2023/06/02 03:36:09;;;;;;;11.20;5.00;;;;;;;15.10;64.32;100773.88;107363;1257;97867;-60
2023/06/02 03:38:39;;;;;;;14.70;5.00;;;;;;;15.15;64.15;100769.31;107345;1254;97815;-60
2023/06/02 03:41:08;;;;;;;13.80;5.50;;;;;;;15.19;64.10;100766.38;107272;1254;111863;-59
2023/06/02 03:43:37;;;;;;;13.50;5.60;;;;;;;15.24;64.30;100769.77;107430;1254;108715;-58
2023/06/02 03:46:08;;;;;;;14.10;5.60;;;;;;;15.32;64.43;100767.85;107423;1259;108706;-60
2023/06/02 03:48:38;;;;;;;15.40;6.60;;;;;;;15.39;64.38;100766.54;107415;1259;97804;-60
2023/06/02 03:51:07;;;;;;;16.40;5.70;;;;;;;15.46;64.33;100769.73;107447;1260;97985;-62
2023/06/02 03:53:45;;;;;;;17.50;5.40;;;;;;;15.52;64.23;100766.03;107303;1259;111324;-60
2023/06/02 03:56:13;;;;;;;17.40;6.10;;;;;;;15.57;64.12;100763.25;107424;1254;108321;-61
2023/06/02 03:58:44;;;;;;;13.10;5.50;;;;;;;15.63;64.15;100760.24;107265;1254;107086;-61
2023/06/02 04:01:12;;;;;;;15.50;4.80;;;;;;;15.68;64.21;100761.23;107260;1255;97918;-62
2023/06/02 04:03:41;;;;;;;13.70;5.30;;;;;;;15.73;64.23;100760.18;107461;1254;99492;-63
2023/06/02 04:06:12;;;;;;;14.10;6.00;;;;;;;15.78;64.40;100756.27;107426;1257;111400;-60
2023/06/02 04:08:41;;;;;;;15.70;5.70;;;;;;;15.86;64.30;100756.55;107425;1254;109824;-59
2023/06/02 04:11:10;;;;;;;11.20;5.30;;;;;;;15.92;64.35;100754.55;107229;1259;108357;-61
2023/06/02 04:13:38;;;;;;;24.30;6.20;;;;;;;16.00;64.12;100754.85;107406;1255;97701;-60
2023/06/02 04:16:07;;;;;;;19.40;5.70;;;;;;;16.08;64.07;100755.04;107433;1254;98343;-61
2023/06/02 04:18:38;;;;;;;11.40;5.10;;;;;;;16.16;64.02;100755.08;107414;1254;110974;-59
2023/06/02 04:21:09;;;;;;;9.60;5.00;;;;;;;16.25;64.08;100755.81;107425;1254;109639;-60
2023/06/02 04:23:39;;;;;;;15.90;6.30;;;;;;;16.35;64.07;100754.69;107306;1260;108091;-60
2023/06/02 04:26:07;;;;;;;16.20;6.20;;;;;;;16.44;63.59;100751.52;107384;1258;98457;-60
2023/06/02 04:28:38;;;;;;;24.80;6.80;;;;;;;16.51;63.15;100750.20;107305;1254;98450;-60
2023/06/02 04:31:09;;;;;;;22.30;6.30;;;;;;;16.58;62.93;100750.10;107259;1257;111698;-60
2023/06/02 04:33:41;;;;;;;30.10;7.40;;;;;;;16.65;62.72;100746.98;107375;1254;109784;-60
2023/06/02 04:36:11;;;;;;;29.10;6.70;;;;;;;16.71;62.53;100746.77;107341;1254;108042;-59
2023/06/02 04:38:43;;;;;;;30.30;7.20;;;;;;;16.78;62.20;100750.41;107361;1257;97908;-60
2023/06/02 04:41:14;;;;;;;29.10;7.80;;;;;;;16.83;62.13;100749.05;107314;1254;98402;-59
2023/06/02 04:43:44;;;;;;;45.90;10.30;;;;;;;16.88;61.75;100748.08;107330;1254;110246;-61
2023/06/02 04:46:13;;;;;;;38.90;8.30;;;;;;;16.93;61.52;100744.16;107443;1254;107961;-58
2023/06/02 04:48:41;;;;;;;41.40;8.20;;;;;;;16.98;61.40;100748.63;107450;1254;108265;-58
2023/06/02 04:51:10;;;;;;;33.50;7.60;;;;;;;17.03;61.05;100752.34;107426;1254;97816;-60
2023/06/02 04:53:39;;;;;;;44.30;8.40;;;;;;;17.09;60.71;100749.41;107451;1254;97767;-61
2023/06/02 04:56:08;;;;;;;36.50;8.60;;;;;;;17.13;60.51;100753.98;107404;1254;110064;-59
2023/06/02 04:58:37;;;;;;;45.20;9.30;;;;;;;17.17;60.33;100748.71;107301;1254;109096;-60
2023/06/02 05:01:06;;;;;;;47.40;8.00;;;;;;;17.22;60.25;100751.13;107431;1254;108344;-60
2023/06/02 05:03:34;;;;;;;29.00;8.30;;;;;;;17.26;60.03;100750.13;107424;1254;98300;-60
2023/06/02 05:06:02;;;;;;;28.50;7.30;;;;;;;17.30;59.75;100744.88;107450;1257;98346;-65
2023/06/02 05:08:32;;;;;;;29.10;8.10;;;;;;;17.35;59.74;100745.60;107385;1254;111564;-63
2023/06/02 05:11:02;;;;;;;43.10;8.80;;;;;;;17.40;59.74;100743.56;107384;1257;108582;-60
2023/06/02 05:13:30;;;;;;;30.80;8.60;;;;;;;17.46;59.69;100742.35;107353;1254;108781;-60
2023/06/02 05:15:59;;;;;;;25.20;7.90;;;;;;;17.50;59.71;100744.73;107369;1257;97816;-62
2023/06/02 05:18:28;;;;;;;19.20;7.50;;;;;;;17.55;59.53;100739.41;107474;1257;97704;-62
2023/06/02 05:20:58;;;;;;;22.00;7.50;;;;;;;17.61;59.58;100743.75;107393;1257;111629;-61
2023/06/02 05:23:30;;;;;;;29.00;7.30;;;;;;;17.67;59.53;100745.84;107332;1254;109709;-61
2023/06/02 05:25:59;;;;;;;24.10;7.60;;;;;;;17.74;59.59;100746.60;107371;1257;108291;-60
2023/06/02 05:28:27;;;;;;;31.00;8.60;;;;;;;17.79;59.60;100744.89;107344;1254;97855;-59
2023/06/02 05:30:56;;;;;;;37.80;9.10;;;;;;;17.86;59.57;100744.11;107457;1254;97827;-60
2023/06/02 05:33:25;;;;;;;33.30;12.70;;;;;;;17.92;59.57;100744.62;107308;1254;110905;-59
2023/06/02 05:35:53;;;;;;;26.10;9.90;;;;;;;17.99;59.50;100743.49;107311;1254;109240;-61
2023/06/02 05:38:22;;;;;;;27.70;8.50;;;;;;;18.06;59.81;100748.02;107453;1254;108577;-61
2023/06/02 05:40:51;;;;;;;31.40;8.90;;;;;;;18.14;59.76;100745.65;107414;1254;98408;-62
2023/06/02 05:43:20;;;;;;;28.40;8.00;;;;;;;18.20;59.74;100746.71;107245;1254;97711;-63
2023/06/02 05:45:49;;;;;;;46.40;9.00;;;;;;;18.27;59.98;100746.39;107207;1254;111705;-61
2023/06/02 05:48:18;;;;;;;26.80;8.00;;;;;;;18.36;60.13;100744.42;107336;1254;109596;-61
2023/06/02 05:50:47;;;;;;;33.80;10.00;;;;;;;18.43;59.60;100747.70;107278;1254;107797;-61
2023/06/02 05:53:16;;;;;;;20.00;8.50;;;;;;;18.51;59.63;100746.41;107053;1257;97895;-62
2023/06/02 05:55:45;;;;;;;32.00;7.20;;;;;;;18.57;59.56;100744.78;107176;1254;98363;-61
2023/06/02 05:58:18;;;;;;;27.50;7.10;;;;;;;18.64;59.32;100746.63;107378;1260;112052;-60
2023/06/02 06:00:47;;;;;;;30.10;8.00;;;;;;;18.73;59.24;100748.48;107281;1254;109079;-61
2023/06/02 06:03:16;;;;;;;28.00;9.70;;;;;;;18.79;59.12;100745.71;107414;1254;108704;-61
2023/06/02 06:05:46;;;;;;;29.00;8.00;;;;;;;18.86;59.11;100746.10;107110;1254;97874;-62
2023/06/02 06:08:15;;;;;;;30.50;7.60;;;;;;;18.95;58.89;100745.80;107375;1254;97871;-63
2023/06/02 06:10:43;;;;;;;26.10;7.30;;;;;;;19.04;58.68;100744.81;107351;1254;111936;-61
2023/06/02 06:13:15;;;;;;;15.00;6.20;;;;;;;19.13;58.60;100743.52;107347;1254;108321;-62
2023/06/02 06:15:47;;;;;;;26.00;10.10;;;;;;;19.21;58.52;100744.36;107256;1260;107977;-62
2023/06/02 06:18:16;;;;;;;21.50;7.20;;;;;;;19.29;58.31;100743.86;107228;1254;97838;-60
2023/06/02 06:20:45;;;;;;;21.40;7.90;;;;;;;19.38;58.24;100745.49;107334;1254;98463;-63
2023/06/02 06:23:14;;;;;;;19.10;7.00;;;;;;;19.48;58.23;100747.27;107419;1259;112173;-60
2023/06/02 06:25:44;;;;;;;27.30;7.80;;;;;;;19.58;57.92;100749.37;107201;1254;109715;-60
2023/06/02 06:28:14;;;;;;;26.60;7.40;;;;;;;19.68;57.78;100750.05;107198;1254;108431;-61
2023/06/02 06:30:45;;;;;;;25.00;6.40;;;;;;;19.78;57.21;100749.66;107359;1254;97883;-61
2023/06/02 06:33:14;;;;;;;19.90;5.20;;;;;;;19.90;56.87;100745.67;107282;1254;98347;-60
2023/06/02 06:35:42;;;;;;;18.20;5.30;;;;;;;20.02;56.09;100749.16;107269;1254;110962;-61
2023/06/02 06:38:11;;;;;;;27.70;5.50;;;;;;;20.18;54.28;100746.00;107234;1254;109702;-62
2023/06/02 06:40:40;;;;;;;21.20;5.40;;;;;;;20.34;52.91;100744.28;107095;1257;108579;-61
2023/06/02 06:43:08;;;;;;;35.90;5.80;;;;;;;20.51;51.89;100746.09;107305;1254;97842;-61
2023/06/02 06:46:01;;;;;;;24.60;6.10;;;;;;;20.70;51.61;100743.44;107350;1254;97826;-61
2023/06/02 06:48:31;;;;;;;72.80;7.60;;;;;;;20.84;51.44;100744.73;107407;1254;111812;-61
2023/06/02 06:50:59;;;;;;;17.00;5.50;;;;;;;20.95;50.98;100742.92;107357;1258;108504;-61
2023/06/02 06:53:28;;;;;;;17.80;6.00;;;;;;;21.04;51.06;100741.10;107440;1254;108359;-61
2023/06/02 06:55:59;;;;;;;17.50;5.90;;;;;;;21.14;50.55;100737.14;107334;1254;97991;-62
2023/06/02 06:58:29;;;;;;;23.10;6.40;;;;;;;21.23;50.41;100732.64;107398;1254;97809;-61
2023/06/02 07:00:58;;;;;;;19.20;5.80;;;;;;;21.32;50.55;100733.06;107326;1258;111306;-63
2023/06/02 07:03:26;;;;;;;27.10;5.80;;;;;;;21.43;50.47;100732.48;107205;1254;109084;-62
2023/06/02 07:05:55;;;;;;;13.60;5.00;;;;;;;21.52;50.40;100729.42;107206;1257;107193;-61
2023/06/02 07:08:24;;;;;;;16.00;4.60;;;;;;;21.64;49.13;100734.80;107383;1254;97828;-60
2023/06/02 07:10:53;;;;;;;14.90;4.20;;;;;;;21.77;48.71;100731.10;107237;1257;98616;-62
2023/06/02 07:13:25;;;;;;;10.10;4.50;;;;;;;21.87;48.52;100731.80;107396;1254;110672;-62
2023/06/02 07:15:53;;;;;;;10.30;5.30;;;;;;;21.97;48.33;100721.67;107412;1254;108984;-61
2023/06/02 07:18:22;;;;;;;14.70;5.00;;;;;;;22.10;48.23;100720.98;107355;1254;108048;-60
2023/06/02 07:20:50;;;;;;;12.10;4.50;;;;;;;22.25;48.08;100719.30;107407;1257;97834;-62
2023/06/02 07:23:19;;;;;;;18.10;5.20;;;;;;;22.40;47.24;100722.67;107246;1254;98440;-62
2023/06/02 07:25:49;;;;;;;15.60;4.60;;;;;;;22.56;46.83;100727.20;107324;1254;111543;-62
2023/06/02 07:28:18;;;;;;;8.30;4.10;;;;;;;22.67;46.40;100724.61;107327;1254;109513;-62
2023/06/02 07:31:08;;;;;;;11.10;4.60;;;;;;;22.76;46.30;100723.70;107234;1254;107985;-62
2023/06/02 07:33:38;;;;;;;11.40;4.30;;;;;;;22.84;46.18;100727.83;107314;1254;97819;-61
2023/06/02 07:36:07;;;;;;;8.70;4.60;;;;;;;22.93;45.78;100727.44;107403;1254;98365;-60
2023/06/02 07:38:35;;;;;;;15.70;4.30;;;;;;;23.02;46.08;100723.98;107344;1260;110853;-61
2023/06/02 07:41:04;;;;;;;14.50;4.70;;;;;;;23.11;45.55;100725.52;107195;1254;109897;-60
2023/06/02 07:43:33;;;;;;;10.50;5.20;;;;;;;23.18;45.52;100727.64;107303;1254;108327;-62
2023/06/02 07:46:01;;;;;;;19.30;4.70;;;;;;;23.22;45.24;100727.54;107306;1255;97716;-61
2023/06/02 07:48:30;;;;;;;14.50;5.70;;;;;;;23.33;45.02;100730.59;107422;1254;97047;-61
2023/06/02 07:51:00;;;;;;;12.40;4.40;;;;;;;23.41;44.15;100732.95;107399;1254;111471;-62
2023/06/02 07:53:29;;;;;;;11.00;5.00;;;;;;;23.49;43.55;100724.48;107456;1257;108859;-62
2023/06/02 07:55:58;;;;;;;13.80;4.80;;;;;;;23.55;43.52;100727.92;107408;1254;108706;-61
2023/06/02 07:58:27;;;;;;;11.90;5.10;;;;;;;23.64;42.54;100732.77;107457;1257;98164;-62
2023/06/02 08:00:55;;;;;;;10.40;4.40;;;;;;;23.75;41.76;100731.70;106886;1254;746156;-62
2023/06/02 08:03:24;;;;;;;12.40;4.50;;;;;;;23.84;40.40;100732.64;107425;1253;111556;-62
2023/06/02 08:05:52;;;;;;;15.40;4.40;;;;;;;23.90;40.54;100731.64;107309;1254;110110;-60
2023/06/02 08:08:21;;;;;;;6.90;3.90;;;;;;;24.03;40.73;100733.54;107385;1254;106962;-62
2023/06/02 08:10:49;;;;;;;12.60;4.20;;;;;;;24.14;40.11;100731.09;107408;1254;97726;-61
2023/06/02 08:13:18;;;;;;;10.50;4.30;;;;;;;24.23;39.84;100723.73;107439;1254;98336;-61
2023/06/02 08:15:47;;;;;;;7.80;4.10;;;;;;;24.34;38.93;100723.82;107298;1254;111900;-61
2023/06/02 08:18:36;;;;;;;9.00;4.20;;;;;;;24.41;39.19;100724.42;107428;1254;110150;-61
2023/06/02 08:21:05;;;;;;;14.70;4.30;;;;;;;24.49;39.03;100722.34;107438;1254;108112;-61
2023/06/02 08:23:33;;;;;;;14.70;4.10;;;;;;;24.57;38.72;100720.70;107434;1254;97748;-62
2023/06/02 08:26:02;;;;;;;8.40;4.50;;;;;;;24.69;39.08;100720.45;107397;1254;98381;-63
2023/06/02 08:28:33;;;;;;;10.00;4.30;;;;;;;24.81;38.07;100718.10;107302;1254;111976;-64
2023/06/02 08:31:02;;;;;;;9.60;4.10;;;;;;;24.94;37.06;100715.09;107378;1257;108638;-62
2023/06/02 08:33:35;;;;;;;12.30;4.30;;;;;;;25.05;36.16;100716.92;107401;1254;108556;-61
2023/06/02 08:36:06;;;;;;;8.90;4.20;;;;;;;25.14;36.14;100709.03;107389;1254;97850;-60
2023/06/02 08:38:40;;;;;;;11.60;3.60;;;;;;;25.24;35.44;100706.08;107473;1254;99322;-63
2023/06/02 08:41:12;;;;;;;13.90;3.60;;;;;;;25.34;35.21;100701.99;107383;1254;111103;-63
2023/06/02 08:43:41;;;;;;;13.80;4.30;;;;;;;25.45;35.50;100698.54;107393;1254;110028;-61
2023/06/02 08:46:14;;;;;;;10.00;3.90;;;;;;;25.58;35.44;100702.95;107400;1257;107354;-61
2023/06/02 08:48:47;;;;;;;7.20;3.90;;;;;;;25.68;35.48;100691.38;107404;1254;97745;-62
2023/06/02 08:51:24;;;;;;;14.40;4.60;;;;;;;25.82;35.18;100693.41;107401;1254;97729;-60
2023/06/02 08:53:52;;;;;;;18.50;3.70;;;;;;;25.98;33.91;100694.01;107399;1254;110949;-61
2023/06/02 08:56:21;;;;;;;9.00;3.20;;;;;;;26.11;32.13;100704.09;107388;1257;109733;-62
2023/06/02 08:58:49;;;;;;;6.80;3.90;;;;;;;26.23;32.59;100691.77;107354;1254;108409;-61
2023/06/02 09:01:18;;;;;;;11.10;4.30;;;;;;;26.37;32.07;100692.22;107360;1254;99261;-62
2023/06/02 09:03:47;;;;;;;13.00;4.00;;;;;;;26.55;32.54;100688.88;107355;1254;97698;-61
2023/06/02 09:06:25;;;;;;;12.60;3.90;;;;;;;26.73;33.22;100680.20;107310;1254;111166;-60
2023/06/02 09:08:59;;;;;;;8.20;4.20;;;;;;;26.97;33.31;100684.02;107399;1254;110130;-63
2023/06/02 09:11:30;;;;;;;9.30;4.00;;;;;;;27.19;31.76;100682.10;107375;1254;107508;-62
2023/06/02 09:13:59;;;;;;;8.10;3.70;;;;;;;27.35;31.24;100680.48;107349;1254;97861;-61
2023/06/02 09:16:38;;;;;;;12.00;4.50;;;;;;;27.55;31.05;100680.50;107433;1254;97749;-62
2023/06/02 09:19:07;;;;;;;7.80;3.60;;;;;;;27.77;30.81;100672.21;107380;1257;112425;-61
2023/06/02 09:21:36;;;;;;;13.20;3.90;;;;;;;27.87;30.17;100672.74;107388;1254;109927;-61
2023/06/02 09:24:05;;;;;;;13.10;4.10;;;;;;;27.95;30.34;100667.71;107389;1255;108339;-61
2023/06/02 09:26:37;;;;;;;11.40;4.10;;;;;;;28.21;29.56;100662.50;107214;1254;97865;-62
2023/06/02 09:29:13;;;;;;;11.10;3.40;;;;;;;28.42;29.46;100659.81;107410;1254;97919;-61
2023/06/02 09:31:52;;;;;;;10.30;3.50;;;;;;;28.76;30.47;100652.79;107313;1254;111671;-61
2023/06/02 09:34:22;;;;;;;11.90;3.50;;;;;;;29.22;29.51;100654.23;107432;1254;109019;-60
2023/06/02 09:36:53;;;;;;;29.40;4.40;;;;;;;29.56;27.88;100646.52;107379;1257;109827;-62
2023/06/02 09:39:33;;;;;;;12.10;3.60;;;;;;;29.83;27.91;100640.98;107460;1254;97853;-60
2023/06/02 09:42:02;;;;;;;27.90;4.20;;;;;;;30.14;27.92;100637.11;107399;1254;97854;-62
2023/06/02 09:44:31;;;;;;;20.00;3.90;;;;;;;30.48;27.69;100631.89;107441;1254;112038;-61
2023/06/02 09:47:02;;;;;;;15.90;3.90;;;;;;;30.81;27.33;100628.53;107434;1254;109915;-60
2023/06/02 09:49:40;;;;;;;30.60;4.50;;;;;;;31.16;26.73;100630.58;107392;1254;108792;-62
2023/06/02 09:52:14;;;;;;;60.10;6.00;;;;;;;31.42;25.87;100631.02;107374;1254;97713;-61
2023/06/02 09:54:47;;;;;;;12.40;3.50;;;;;;;31.69;25.26;100633.88;107426;1254;97864;-62
2023/06/02 09:57:19;;;;;;;9.30;3.80;;;;;;;31.90;24.18;100626.52;107396;1254;111596;-61
2023/06/02 09:59:48;;;;;;;5.60;3.90;;;;;;;32.13;24.68;100620.66;107423;1254;111614;-59
2023/06/02 10:02:16;;;;;;;10.60;3.60;;;;;;;32.44;24.23;100615.52;107378;1254;108664;-60
2023/06/02 10:04:48;;;;;;;8.70;3.20;;;;;;;32.63;24.58;100612.37;107388;1257;98040;-60
2023/06/02 10:07:23;;;;;;;14.20;3.40;;;;;;;33.05;23.54;100605.45;107375;1254;97895;-61
2023/06/02 10:10:10;;;;;;;7.10;3.30;;;;;;;33.45;24.04;100600.59;107326;1254;112599;-62
2023/06/02 10:13:24;;;;;;;11.60;3.80;;;;;;;33.92;23.36;100599.80;107401;1257;109955;-60
2023/06/02 10:16:11;;;;;;;;;;;;;;;34.51;22.82;100590.16;107353;1257;108830;-60
2023/06/02 10:19:01;;;;;;;9.50;3.40;;;;;;;35.08;22.57;100586.07;107400;1254;97856;-61
2023/06/02 10:21:47;;;;;;;14.60;3.50;;;;;;;35.64;21.89;100586.29;107367;1254;98392;-62
2023/06/02 10:24:39;;;;;;;10.10;3.50;;;;;;;36.12;21.39;100582.78;107345;1259;112169;-62
2023/06/02 10:27:29;;;;;;;13.30;3.40;;;;;;;36.66;21.31;100575.04;107378;1254;110971;-62
2023/06/02 10:29:59;;;;;;;5.90;3.30;;;;;;;37.02;19.81;100574.23;107376;1254;107953;-64
2023/06/02 10:32:33;;;;;;;8.40;3.40;;;;;;;37.24;19.63;100572.77;107401;1254;97884;-63
2023/06/02 10:35:02;;;;;;;45.60;6.10;;;;;;;37.47;19.62;100570.66;107424;1254;98367;-61
2023/06/02 10:37:34;;;;;;;8.50;3.50;;;;;;;37.30;20.17;100569.45;107364;1254;112449;-60
2023/06/02 10:40:04;;;;;;;31.60;3.70;;;;;;;36.63;20.41;100570.40;107334;1254;110013;-61
2023/06/02 10:42:32;;;;;;;10.70;3.70;;;;;;;35.84;20.67;100571.84;107420;1254;108298;-61
2023/06/02 10:45:27;;;;;;;10.30;3.90;;;;;;;35.82;19.96;100565.88;107464;1253;97940;-59
2023/06/02 10:47:55;;;;;;;5.80;3.20;;;;;;;36.19;20.28;100557.36;107445;1254;97822;-62
2023/06/02 10:50:54;;;;;;;13.40;2.70;;;;;;;36.82;19.88;100556.83;107420;1254;113504;-60
2023/06/02 10:53:23;;;;;;;12.70;3.20;;;;;;;37.50;18.03;100553.48;107322;1254;110125;-60
2023/06/02 10:55:52;;;;;;;9.60;3.20;;;;;;;37.76;17.95;100548.46;107441;1253;107370;-61
2023/06/02 10:58:21;;;;;;;8.30;2.60;;;;;;;38.03;17.73;100538.86;107424;1257;97829;-60
2023/06/02 11:00:52;;;;;;;11.90;3.50;;;;;;;38.45;17.59;100533.16;107451;1254;97723;-61
2023/06/02 11:03:21;;;;;;;17.00;3.00;;;;;;;38.84;17.13;100531.45;107418;1254;111245;-61
2023/06/02 11:05:50;;;;;;;6.70;2.70;;;;;;;39.12;17.00;100530.21;107408;1254;110150;-60
2023/06/02 11:08:21;;;;;;;10.00;3.50;;;;;;;39.50;17.01;100526.30;107413;1257;107641;-61
2023/06/02 11:11:00;;;;;;;12.40;3.30;;;;;;;39.98;16.81;100531.86;107437;1254;97730;-62
2023/06/02 11:13:58;;;;;;;11.70;3.30;;;;;;;40.29;16.25;100527.66;107335;1259;98363;-64
2023/06/02 11:16:28;;;;;;;6.00;3.00;;;;;;;40.55;15.78;100521.53;107374;1254;112279;-61
2023/06/02 11:18:56;;;;;;;4.40;2.50;;;;;;;40.22;15.99;100526.83;107435;1254;109334;-62
2023/06/02 11:21:25;;;;;;;5.20;2.30;;;;;;;39.83;16.42;100523.94;107434;1254;107523;-59
2023/06/02 11:23:54;;;;;;;5.10;3.10;;;;;;;39.80;15.91;100524.63;107453;1257;97829;-61